General Aviation Weather

Text Reports

Enter one or more of the following location identifiers separated by a space:

Zip Code, Four-Character ICAO or Three-Character IATA airport codes.

METAR - Aviation Routine Weather Report
KD95 - Lapeer, Michigan
Updated at 2:33 PM GMT on August 27, 2014 (10:33 AM EDT):
METAR KD95 271433Z AUTO 00000KT 10SM OVC031 18/13 A3015 RMK AO2 T01820134
TAF - Terminal Area Forecast
KD95 - Lapeer, Michigan
Updated at 2:33 PM GMT on August 27, 2014 (10:33 AM EDT):
No TAF is currently available for this location.
Decoded:
No decoded TAF is available.
PIREP - Pilot Weather Report
KD95 - Lapeer, Michigan
Updated at 2:33 PM GMT on August 27, 2014 (10:33 AM EDT):
No PIREP is currently available for this location.
AIRMET - Airmens Meteorological Information
KD95 - Lapeer, Michigan
Updated at 2:33 PM GMT on August 27, 2014 (10:33 AM EDT):
No AIRMET is currently available for this location.
SIGMET - Significant Meteorological Information
KD95 - Lapeer, Michigan
Updated at 2:33 PM GMT on August 27, 2014 (10:33 AM EDT):
No SIGMET is currently available for this location.
NOTAM - Notice to Airmen
KD95 - Lapeer, Michigan
Updated at 2:33 PM GMT on August 27, 2014 (10:33 AM EDT):
No NOTAM is currently available for this location.
Forecast Area
KD95 - Lapeer, Michigan
Updated at 2:33 PM GMT on August 27, 2014 (10:33 AM EDT):
No NOTAM is currently available for this location.
Aviation Weather Maps